sensor_id;sensor_type;location;lat;lon;timestamp;P1;durP1;ratioP1;P2;durP2;ratioP2
487;SDS011;16586;48.976;9.584;2023-03-03T00:01:19;356.90;;;339.85;;
487;SDS011;16586;48.976;9.584;2023-03-03T00:03:45;398.88;;;379.85;;
487;SDS011;16586;48.976;9.584;2023-03-03T00:06:13;371.45;;;353.70;;
487;SDS011;16586;48.976;9.584;2023-03-03T00:08:39;313.55;;;298.58;;
487;SDS011;16586;48.976;9.584;2023-03-03T00:11:07;357.50;;;340.42;;
487;SDS011;16586;48.976;9.584;2023-03-03T00:13:40;358.95;;;341.83;;
487;SDS011;16586;48.976;9.584;2023-03-03T00:16:15;349.87;;;333.17;;
487;SDS011;16586;48.976;9.584;2023-03-03T00:18:46;298.60;;;284.33;;
487;SDS011;16586;48.976;9.584;2023-03-03T00:21:29;332.30;;;316.40;;
487;SDS011;16586;48.976;9.584;2023-03-03T00:24:00;341.52;;;325.23;;
487;SDS011;16586;48.976;9.584;2023-03-03T00:26:43;332.00;;;316.10;;
487;SDS011;16586;48.976;9.584;2023-03-03T00:29:32;395.65;;;376.75;;
487;SDS011;16586;48.976;9.584;2023-03-03T00:32:08;374.08;;;356.20;;
487;SDS011;16586;48.976;9.584;2023-03-03T00:34:43;349.88;;;333.17;;
487;SDS011;16586;48.976;9.584;2023-03-03T00:37:18;386.08;;;367.65;;
487;SDS011;16586;48.976;9.584;2023-03-03T00:39:52;402.05;;;382.85;;
487;SDS011;16586;48.976;9.584;2023-03-03T00:42:25;320.00;;;304.70;;
487;SDS011;16586;48.976;9.584;2023-03-03T00:44:56;331.43;;;315.60;;
487;SDS011;16586;48.976;9.584;2023-03-03T00:47:27;321.60;;;306.25;;
487;SDS011;16586;48.976;9.584;2023-03-03T00:50:10;387.27;;;368.77;;
487;SDS011;16586;48.976;9.584;2023-03-03T00:53:00;332.90;;;317.00;;
487;SDS011;16586;48.976;9.584;2023-03-03T00:55:32;352.33;;;335.50;;
487;SDS011;16586;48.976;9.584;2023-03-03T00:57:59;362.42;;;345.13;;
487;SDS011;16586;48.976;9.584;2023-03-03T01:00:28;352.25;;;335.42;;
487;SDS011;16586;48.976;9.584;2023-03-03T01:02:55;401.88;;;382.67;;
487;SDS011;16586;48.976;9.584;2023-03-03T01:05:22;357.75;;;340.65;;
487;SDS011;16586;48.976;9.584;2023-03-03T01:07:49;403.17;;;383.93;;
487;SDS011;16586;48.976;9.584;2023-03-03T01:10:16;348.50;;;331.85;;
487;SDS011;16586;48.976;9.584;2023-03-03T01:12:42;329.10;;;313.40;;
487;SDS011;16586;48.976;9.584;2023-03-03T01:15:10;354.30;;;337.37;;
487;SDS011;16586;48.976;9.584;2023-03-03T01:17:40;380.83;;;362.65;;
487;SDS011;16586;48.976;9.584;2023-03-03T01:20:08;356.00;;;339.00;;
487;SDS011;16586;48.976;9.584;2023-03-03T01:22:36;293.52;;;279.50;;
487;SDS011;16586;48.976;9.584;2023-03-03T01:25:04;323.10;;;307.65;;
487;SDS011;16586;48.976;9.584;2023-03-03T01:27:31;334.85;;;318.85;;
487;SDS011;16586;48.976;9.584;2023-03-03T01:30:00;333.10;;;317.17;;
487;SDS011;16586;48.976;9.584;2023-03-03T01:32:27;349.13;;;332.48;;
487;SDS011;16586;48.976;9.584;2023-03-03T01:34:55;373.13;;;355.30;;
487;SDS011;16586;48.976;9.584;2023-03-03T01:37:22;365.95;;;348.48;;
487;SDS011;16586;48.976;9.584;2023-03-03T01:39:49;297.90;;;283.65;;
487;SDS011;16586;48.976;9.584;2023-03-03T01:42:16;376.75;;;358.77;;
487;SDS011;16586;48.976;9.584;2023-03-03T01:44:44;357.98;;;340.88;;
487;SDS011;16586;48.976;9.584;2023-03-03T01:47:11;326.52;;;310.92;;
487;SDS011;16586;48.976;9.584;2023-03-03T01:49:40;300.73;;;286.38;;
487;SDS011;16586;48.976;9.584;2023-03-03T01:52:17;313.17;;;298.20;;
487;SDS011;16586;48.976;9.584;2023-03-03T01:54:51;323.50;;;308.05;;
487;SDS011;16586;48.976;9.584;2023-03-03T01:57:22;312.70;;;297.77;;
487;SDS011;16586;48.976;9.584;2023-03-03T01:59:51;282.40;;;268.90;;
487;SDS011;16586;48.976;9.584;2023-03-03T02:02:20;229.85;;;218.88;;
487;SDS011;16586;48.976;9.584;2023-03-03T02:04:48;228.10;;;217.20;;
487;SDS011;16586;48.976;9.584;2023-03-03T02:07:16;182.57;;;173.82;;
487;SDS011;16586;48.976;9.584;2023-03-03T02:09:47;229.33;;;218.33;;
487;SDS011;16586;48.976;9.584;2023-03-03T02:12:20;166.07;;;158.13;;
487;SDS011;16586;48.976;9.584;2023-03-03T02:14:55;166.25;;;158.27;;
487;SDS011;16586;48.976;9.584;2023-03-03T02:17:21;185.05;;;176.18;;
487;SDS011;16586;48.976;9.584;2023-03-03T02:19:51;153.00;;;145.68;;
487;SDS011;16586;48.976;9.584;2023-03-03T02:22:27;176.98;;;168.50;;
487;SDS011;16586;48.976;9.584;2023-03-03T02:24:59;142.90;;;136.00;;
487;SDS011;16586;48.976;9.584;2023-03-03T02:27:30;155.52;;;148.05;;
487;SDS011;16586;48.976;9.584;2023-03-03T02:30:06;129.88;;;123.68;;
487;SDS011;16586;48.976;9.584;2023-03-03T02:32:34;170.57;;;162.37;;
487;SDS011;16586;48.976;9.584;2023-03-03T02:35:00;161.13;;;153.43;;
487;SDS011;16586;48.976;9.584;2023-03-03T02:37:27;164.43;;;156.55;;
487;SDS011;16586;48.976;9.584;2023-03-03T02:39:54;129.18;;;122.97;;
487;SDS011;16586;48.976;9.584;2023-03-03T02:42:22;84.37;;;80.27;;
487;SDS011;16586;48.976;9.584;2023-03-03T02:44:54;109.38;;;104.10;;
487;SDS011;16586;48.976;9.584;2023-03-03T02:47:20;101.40;;;96.50;;
487;SDS011;16586;48.976;9.584;2023-03-03T02:49:47;131.02;;;124.72;;
487;SDS011;16586;48.976;9.584;2023-03-03T02:52:14;137.93;;;131.30;;
487;SDS011;16586;48.976;9.584;2023-03-03T02:54:43;147.05;;;140.00;;
487;SDS011;16586;48.976;9.584;2023-03-03T02:57:09;143.65;;;136.75;;
487;SDS011;16586;48.976;9.584;2023-03-03T02:59:36;132.57;;;126.20;;
487;SDS011;16586;48.976;9.584;2023-03-03T03:02:04;140.50;;;133.75;;
487;SDS011;16586;48.976;9.584;2023-03-03T03:04:32;135.18;;;128.68;;
487;SDS011;16586;48.976;9.584;2023-03-03T03:06:59;151.00;;;143.80;;
487;SDS011;16586;48.976;9.584;2023-03-03T03:09:27;178.93;;;170.35;;
487;SDS011;16586;48.976;9.584;2023-03-03T03:11:54;160.75;;;153.05;;
487;SDS011;16586;48.976;9.584;2023-03-03T03:14:21;160.65;;;152.95;;
487;SDS011;16586;48.976;9.584;2023-03-03T03:16:48;137.30;;;130.70;;
487;SDS011;16586;48.976;9.584;2023-03-03T03:19:17;158.90;;;151.30;;
487;SDS011;16586;48.976;9.584;2023-03-03T03:21:44;144.23;;;137.33;;
487;SDS011;16586;48.976;9.584;2023-03-03T03:24:11;141.20;;;134.40;;
487;SDS011;16586;48.976;9.584;2023-03-03T03:26:37;122.53;;;116.63;;
487;SDS011;16586;48.976;9.584;2023-03-03T03:29:04;144.32;;;137.40;;
487;SDS011;16586;48.976;9.584;2023-03-03T03:31:31;137.60;;;131.00;;
487;SDS011;16586;48.976;9.584;2023-03-03T03:33:58;135.25;;;128.75;;
487;SDS011;16586;48.976;9.584;2023-03-03T03:36:26;158.52;;;150.93;;
487;SDS011;16586;48.976;9.584;2023-03-03T03:38:53;155.68;;;148.18;;
487;SDS011;16586;48.976;9.584;2023-03-03T03:41:20;143.90;;;137.00;;
487;SDS011;16586;48.976;9.584;2023-03-03T03:43:46;137.48;;;130.88;;
487;SDS011;16586;48.976;9.584;2023-03-03T03:46:13;145.45;;;138.45;;
487;SDS011;16586;48.976;9.584;2023-03-03T03:48:43;139.63;;;132.93;;
487;SDS011;16586;48.976;9.584;2023-03-03T03:51:10;144.65;;;137.73;;
487;SDS011;16586;48.976;9.584;2023-03-03T03:53:38;147.77;;;140.68;;
487;SDS011;16586;48.976;9.584;2023-03-03T03:56:05;146.35;;;139.32;;
487;SDS011;16586;48.976;9.584;2023-03-03T03:58:33;158.70;;;151.10;;
487;SDS011;16586;48.976;9.584;2023-03-03T04:01:00;202.25;;;192.55;;
487;SDS011;16586;48.976;9.584;2023-03-03T04:03:28;147.40;;;140.32;;
487;SDS011;16586;48.976;9.584;2023-03-03T04:05:55;153.68;;;146.30;;
487;SDS011;16586;48.976;9.584;2023-03-03T04:08:21;156.63;;;149.13;;
487;SDS011;16586;48.976;9.584;2023-03-03T04:10:49;125.95;;;119.90;;
487;SDS011;16586;48.976;9.584;2023-03-03T04:13:16;120.60;;;114.80;;
487;SDS011;16586;48.976;9.584;2023-03-03T04:15:43;126.35;;;120.25;;
487;SDS011;16586;48.976;9.584;2023-03-03T04:18:10;117.90;;;112.22;;
487;SDS011;16586;48.976;9.584;2023-03-03T04:20:38;133.50;;;127.07;;
487;SDS011;16586;48.976;9.584;2023-03-03T04:23:05;105.97;;;100.88;;
487;SDS011;16586;48.976;9.584;2023-03-03T04:25:31;106.73;;;101.63;;
487;SDS011;16586;48.976;9.584;2023-03-03T04:28:00;116.15;;;110.57;;
487;SDS011;16586;48.976;9.584;2023-03-03T04:30:26;105.57;;;100.47;;
487;SDS011;16586;48.976;9.584;2023-03-03T04:32:53;114.65;;;109.15;;
487;SDS011;16586;48.976;9.584;2023-03-03T04:35:20;120.90;;;115.10;;
487;SDS011;16586;48.976;9.584;2023-03-03T04:37:46;144.02;;;137.10;;
487;SDS011;16586;48.976;9.584;2023-03-03T04:40:13;121.53;;;115.72;;
487;SDS011;16586;48.976;9.584;2023-03-03T04:42:40;143.00;;;136.15;;
487;SDS011;16586;48.976;9.584;2023-03-03T04:45:09;113.53;;;108.07;;
487;SDS011;16586;48.976;9.584;2023-03-03T04:47:36;125.65;;;119.63;;
487;SDS011;16586;48.976;9.584;2023-03-03T04:50:03;127.30;;;121.20;;
487;SDS011;16586;48.976;9.584;2023-03-03T04:52:30;137.00;;;130.43;;
487;SDS011;16586;48.976;9.584;2023-03-03T04:54:57;115.40;;;109.88;;
487;SDS011;16586;48.976;9.584;2023-03-03T04:57:24;132.05;;;125.72;;
487;SDS011;16586;48.976;9.584;2023-03-03T04:59:51;128.60;;;122.40;;
487;SDS011;16586;48.976;9.584;2023-03-03T05:02:19;111.15;;;105.80;;
487;SDS011;16586;48.976;9.584;2023-03-03T05:04:46;123.28;;;117.38;;
487;SDS011;16586;48.976;9.584;2023-03-03T05:07:12;135.82;;;129.32;;
487;SDS011;16586;48.976;9.584;2023-03-03T05:09:39;152.05;;;144.75;;
487;SDS011;16586;48.976;9.584;2023-03-03T05:12:06;139.27;;;132.57;;
487;SDS011;16586;48.976;9.584;2023-03-03T05:14:33;107.80;;;102.60;;
487;SDS011;16586;48.976;9.584;2023-03-03T05:17:00;116.18;;;110.57;;
487;SDS011;16586;48.976;9.584;2023-03-03T05:19:29;130.68;;;124.38;;
487;SDS011;16586;48.976;9.584;2023-03-03T05:21:56;131.52;;;125.22;;
487;SDS011;16586;48.976;9.584;2023-03-03T05:24:24;131.07;;;124.77;;
487;SDS011;16586;48.976;9.584;2023-03-03T05:26:51;147.02;;;139.98;;
487;SDS011;16586;48.976;9.584;2023-03-03T05:29:17;129.20;;;123.00;;
487;SDS011;16586;48.976;9.584;2023-03-03T05:31:44;133.00;;;126.60;;
487;SDS011;16586;48.976;9.584;2023-03-03T05:34:11;142.38;;;135.55;;
487;SDS011;16586;48.976;9.584;2023-03-03T05:36:39;129.05;;;122.85;;
487;SDS011;16586;48.976;9.584;2023-03-03T05:39:06;137.83;;;131.23;;
487;SDS011;16586;48.976;9.584;2023-03-03T05:41:33;148.90;;;141.77;;
487;SDS011;16586;48.976;9.584;2023-03-03T05:44:00;159.73;;;152.07;;
487;SDS011;16586;48.976;9.584;2023-03-03T05:46:27;212.13;;;201.98;;
487;SDS011;16586;48.976;9.584;2023-03-03T05:48:54;178.88;;;170.30;;
487;SDS011;16586;48.976;9.584;2023-03-03T05:51:21;214.03;;;203.80;;
487;SDS011;16586;48.976;9.584;2023-03-03T05:53:49;246.83;;;235.03;;
487;SDS011;16586;48.976;9.584;2023-03-03T05:56:16;227.63;;;216.75;;
487;SDS011;16586;48.976;9.584;2023-03-03T05:58:42;231.10;;;220.03;;
487;SDS011;16586;48.976;9.584;2023-03-03T06:01:10;270.90;;;257.95;;
487;SDS011;16586;48.976;9.584;2023-03-03T06:03:37;214.50;;;204.23;;
487;SDS011;16586;48.976;9.584;2023-03-03T06:06:04;255.38;;;243.18;;
487;SDS011;16586;48.976;9.584;2023-03-03T06:08:31;223.50;;;212.80;;
487;SDS011;16586;48.976;9.584;2023-03-03T06:10:59;232.33;;;221.20;;
487;SDS011;16586;48.976;9.584;2023-03-03T06:13:26;195.13;;;185.77;;
487;SDS011;16586;48.976;9.584;2023-03-03T06:15:54;151.25;;;144.00;;
487;SDS011;16586;48.976;9.584;2023-03-03T06:18:21;179.90;;;171.27;;
487;SDS011;16586;48.976;9.584;2023-03-03T06:20:49;171.00;;;162.80;;
487;SDS011;16586;48.976;9.584;2023-03-03T06:23:17;161.00;;;153.30;;
487;SDS011;16586;48.976;9.584;2023-03-03T06:25:44;185.55;;;176.65;;
487;SDS011;16586;48.976;9.584;2023-03-03T06:28:14;182.02;;;173.30;;
487;SDS011;16586;48.976;9.584;2023-03-03T06:30:52;182.30;;;173.57;;
487;SDS011;16586;48.976;9.584;2023-03-03T06:33:19;164.55;;;156.65;;
487;SDS011;16586;48.976;9.584;2023-03-03T06:38:36;213.45;;;203.23;;
487;SDS011;16586;48.976;9.584;2023-03-03T06:41:15;242.63;;;231.02;;
487;SDS011;16586;48.976;9.584;2023-03-03T06:43:44;201.13;;;191.52;;
487;SDS011;16586;48.976;9.584;2023-03-03T06:49:24;246.38;;;234.60;;
487;SDS011;16586;48.976;9.584;2023-03-03T06:52:09;237.20;;;225.85;;
487;SDS011;16586;48.976;9.584;2023-03-03T06:54:40;269.38;;;256.48;;
487;SDS011;16586;48.976;9.584;2023-03-03T06:57:12;270.23;;;257.33;;
487;SDS011;16586;48.976;9.584;2023-03-03T07:00:11;253.10;;;241.00;;
487;SDS011;16586;48.976;9.584;2023-03-03T07:02:44;246.50;;;234.70;;
487;SDS011;16586;48.976;9.584;2023-03-03T07:08:00;367.88;;;350.30;;
487;SDS011;16586;48.976;9.584;2023-03-03T07:10:29;295.60;;;281.48;;
487;SDS011;16586;48.976;9.584;2023-03-03T07:15:36;322.20;;;306.80;;
487;SDS011;16586;48.976;9.584;2023-03-03T07:18:20;321.53;;;306.17;;
487;SDS011;16586;48.976;9.584;2023-03-03T07:20:57;309.75;;;294.95;;
487;SDS011;16586;48.976;9.584;2023-03-03T07:23:27;305.17;;;290.58;;
487;SDS011;16586;48.976;9.584;2023-03-03T07:25:58;354.00;;;337.10;;
487;SDS011;16586;48.976;9.584;2023-03-03T07:28:31;349.17;;;332.50;;
487;SDS011;16586;48.976;9.584;2023-03-03T07:34:04;334.95;;;318.95;;
487;SDS011;16586;48.976;9.584;2023-03-03T07:36:48;338.52;;;322.35;;
487;SDS011;16586;48.976;9.584;2023-03-03T07:39:30;370.47;;;352.77;;
487;SDS011;16586;48.976;9.584;2023-03-03T07:42:09;369.38;;;351.73;;
487;SDS011;16586;48.976;9.584;2023-03-03T07:44:52;378.27;;;360.23;;
487;SDS011;16586;48.976;9.584;2023-03-03T07:47:23;309.40;;;294.60;;
487;SDS011;16586;48.976;9.584;2023-03-03T07:49:53;293.75;;;279.70;;
487;SDS011;16586;48.976;9.584;2023-03-03T07:52:25;318.70;;;303.50;;
487;SDS011;16586;48.976;9.584;2023-03-03T07:54:54;328.85;;;313.13;;
487;SDS011;16586;48.976;9.584;2023-03-03T07:57:24;321.70;;;306.33;;
487;SDS011;16586;48.976;9.584;2023-03-03T07:59:59;387.10;;;368.63;;
487;SDS011;16586;48.976;9.584;2023-03-03T08:02:42;334.42;;;318.42;;
487;SDS011;16586;48.976;9.584;2023-03-03T08:05:23;389.08;;;370.50;;
487;SDS011;16586;48.976;9.584;2023-03-03T08:07:55;374.15;;;356.30;;
487;SDS011;16586;48.976;9.584;2023-03-03T08:10:42;337.83;;;321.67;;
487;SDS011;16586;48.976;9.584;2023-03-03T08:13:15;344.67;;;328.23;;
487;SDS011;16586;48.976;9.584;2023-03-03T08:15:44;334.52;;;318.52;;
487;SDS011;16586;48.976;9.584;2023-03-03T08:18:22;401.95;;;382.75;;
487;SDS011;16586;48.976;9.584;2023-03-03T08:20:56;336.42;;;320.35;;
487;SDS011;16586;48.976;9.584;2023-03-03T08:23:25;345.60;;;329.07;;
487;SDS011;16586;48.976;9.584;2023-03-03T08:25:52;334.60;;;318.60;;
487;SDS011;16586;48.976;9.584;2023-03-03T08:28:21;391.00;;;372.33;;
487;SDS011;16586;48.976;9.584;2023-03-03T08:30:48;392.23;;;373.50;;
487;SDS011;16586;48.976;9.584;2023-03-03T08:33:16;416.23;;;396.38;;
487;SDS011;16586;48.976;9.584;2023-03-03T08:35:44;381.77;;;363.55;;
487;SDS011;16586;48.976;9.584;2023-03-03T08:38:13;372.17;;;354.40;;
487;SDS011;16586;48.976;9.584;2023-03-03T08:40:43;341.20;;;324.90;;
487;SDS011;16586;48.976;9.584;2023-03-03T08:43:10;352.17;;;335.38;;
487;SDS011;16586;48.976;9.584;2023-03-03T08:45:41;380.23;;;362.08;;
487;SDS011;16586;48.976;9.584;2023-03-03T08:48:08;393.10;;;374.30;;
487;SDS011;16586;48.976;9.584;2023-03-03T08:50:36;382.15;;;363.90;;
487;SDS011;16586;48.976;9.584;2023-03-03T08:53:05;427.15;;;406.77;;
487;SDS011;16586;48.976;9.584;2023-03-03T08:55:38;474.35;;;451.70;;
487;SDS011;16586;48.976;9.584;2023-03-03T08:58:05;491.20;;;467.77;;
487;SDS011;16586;48.976;9.584;2023-03-03T09:00:37;518.72;;;493.98;;
487;SDS011;16586;48.976;9.584;2023-03-03T09:03:08;490.35;;;466.95;;
487;SDS011;16586;48.976;9.584;2023-03-03T09:05:37;483.48;;;460.38;;
487;SDS011;16586;48.976;9.584;2023-03-03T09:08:07;464.38;;;442.20;;
487;SDS011;16586;48.976;9.584;2023-03-03T09:10:34;519.97;;;495.17;;
487;SDS011;16586;48.976;9.584;2023-03-03T09:13:03;523.28;;;498.33;;
487;SDS011;16586;48.976;9.584;2023-03-03T09:15:37;494.90;;;471.27;;
487;SDS011;16586;48.976;9.584;2023-03-03T09:18:09;547.20;;;521.08;;
487;SDS011;16586;48.976;9.584;2023-03-03T09:20:41;517.90;;;493.17;;
487;SDS011;16586;48.976;9.584;2023-03-03T09:23:27;511.73;;;487.33;;
487;SDS011;16586;48.976;9.584;2023-03-03T09:26:20;509.17;;;484.87;;
487;SDS011;16586;48.976;9.584;2023-03-03T09:28:52;495.53;;;471.90;;
487;SDS011;16586;48.976;9.584;2023-03-03T09:31:30;552.87;;;526.47;;
487;SDS011;16586;48.976;9.584;2023-03-03T09:34:08;581.23;;;553.53;;
487;SDS011;16586;48.976;9.584;2023-03-03T09:36:41;546.17;;;520.13;;
487;SDS011;16586;48.976;9.584;2023-03-03T09:39:11;553.42;;;527.03;;
487;SDS011;16586;48.976;9.584;2023-03-03T09:41:48;636.43;;;606.07;;
487;SDS011;16586;48.976;9.584;2023-03-03T09:47:55;639.83;;;609.30;;
487;SDS011;16586;48.976;9.584;2023-03-03T09:50:36;654.28;;;623.05;;
487;SDS011;16586;48.976;9.584;2023-03-03T09:53:36;660.33;;;628.83;;
487;SDS011;16586;48.976;9.584;2023-03-03T09:56:34;711.47;;;677.55;;
487;SDS011;16586;48.976;9.584;2023-03-03T09:59:34;691.58;;;658.60;;
487;SDS011;16586;48.976;9.584;2023-03-03T10:02:13;747.00;;;711.38;;
487;SDS011;16586;48.976;9.584;2023-03-03T10:04:56;765.35;;;728.88;;
487;SDS011;16586;48.976;9.584;2023-03-03T10:07:38;779.72;;;742.53;;
487;SDS011;16586;48.976;9.584;2023-03-03T10:10:16;779.78;;;742.60;;
487;SDS011;16586;48.976;9.584;2023-03-03T10:12:51;794.97;;;757.08;;
487;SDS011;16586;48.976;9.584;2023-03-03T10:15:31;788.03;;;750.45;;
487;SDS011;16586;48.976;9.584;2023-03-03T10:18:11;774.63;;;737.70;;
487;SDS011;16586;48.976;9.584;2023-03-03T10:21:00;818.10;;;779.10;;
487;SDS011;16586;48.976;9.584;2023-03-03T10:23:45;805.20;;;766.80;;
487;SDS011;16586;48.976;9.584;2023-03-03T10:26:25;637.83;;;607.40;;
487;SDS011;16586;48.976;9.584;2023-03-03T10:29:09;697.57;;;664.30;;
487;SDS011;16586;48.976;9.584;2023-03-03T10:31:50;720.40;;;686.05;;
487;SDS011;16586;48.976;9.584;2023-03-03T10:34:47;686.53;;;653.78;;
487;SDS011;16586;48.976;9.584;2023-03-03T10:37:27;685.60;;;652.90;;
487;SDS011;16586;48.976;9.584;2023-03-03T10:40:23;698.42;;;665.13;;
487;SDS011;16586;48.976;9.584;2023-03-03T10:43:10;708.80;;;675.00;;
487;SDS011;16586;48.976;9.584;2023-03-03T10:45:58;724.72;;;690.17;;
487;SDS011;16586;48.976;9.584;2023-03-03T10:48:53;723.00;;;688.50;;
487;SDS011;16586;48.976;9.584;2023-03-03T10:51:40;745.53;;;709.97;;
487;SDS011;16586;48.976;9.584;2023-03-03T10:54:23;716.78;;;682.60;;
487;SDS011;16586;48.976;9.584;2023-03-03T10:57:20;750.53;;;714.72;;
487;SDS011;16586;48.976;9.584;2023-03-03T10:59:58;750.58;;;714.78;;
487;SDS011;16586;48.976;9.584;2023-03-03T11:02:35;748.10;;;712.40;;
487;SDS011;16586;48.976;9.584;2023-03-03T11:05:18;777.13;;;740.05;;
487;SDS011;16586;48.976;9.584;2023-03-03T11:07:57;757.05;;;720.92;;
487;SDS011;16586;48.976;9.584;2023-03-03T11:10:38;752.43;;;716.53;;
487;SDS011;16586;48.976;9.584;2023-03-03T11:13:16;750.70;;;714.90;;
487;SDS011;16586;48.976;9.584;2023-03-03T11:15:54;752.33;;;716.45;;
487;SDS011;16586;48.976;9.584;2023-03-03T11:18:44;723.90;;;689.40;;
487;SDS011;16586;48.976;9.584;2023-03-03T11:21:28;735.13;;;700.08;;
487;SDS011;16586;48.976;9.584;2023-03-03T11:24:14;765.17;;;728.67;;
487;SDS011;16586;48.976;9.584;2023-03-03T11:27:10;753.25;;;717.33;;
487;SDS011;16586;48.976;9.584;2023-03-03T11:30:02;790.30;;;752.60;;
487;SDS011;16586;48.976;9.584;2023-03-03T11:32:47;821.22;;;782.08;;
487;SDS011;16586;48.976;9.584;2023-03-03T11:35:28;820.03;;;780.92;;
487;SDS011;16586;48.976;9.584;2023-03-03T11:38:09;856.17;;;815.38;;
487;SDS011;16586;48.976;9.584;2023-03-03T11:40:50;876.08;;;834.30;;
487;SDS011;16586;48.976;9.584;2023-03-03T11:43:21;1043.80;;;993.88;;
487;SDS011;16586;48.976;9.584;2023-03-03T11:45:53;1159.20;;;999.90;;
487;SDS011;16586;48.976;9.584;2023-03-03T11:48:26;1164.50;;;999.90;;
487;SDS011;16586;48.976;9.584;2023-03-03T11:51:01;1170.03;;;999.90;;
487;SDS011;16586;48.976;9.584;2023-03-03T11:53:36;1168.53;;;999.90;;
487;SDS011;16586;48.976;9.584;2023-03-03T11:56:16;1034.38;;;985.08;;
487;SDS011;16586;48.976;9.584;2023-03-03T11:58:49;1059.63;;;999.90;;
487;SDS011;16586;48.976;9.584;2023-03-03T12:01:27;1051.63;;;999.90;;
487;SDS011;16586;48.976;9.584;2023-03-03T12:03:59;1036.90;;;987.50;;
487;SDS011;16586;48.976;9.584;2023-03-03T12:06:30;1031.15;;;982.00;;
487;SDS011;16586;48.976;9.584;2023-03-03T12:09:19;1023.47;;;974.67;;
487;SDS011;16586;48.976;9.584;2023-03-03T12:11:56;1013.53;;;965.23;;
487;SDS011;16586;48.976;9.584;2023-03-03T12:14:37;994.83;;;947.42;;
487;SDS011;16586;48.976;9.584;2023-03-03T12:17:18;992.22;;;944.92;;
487;SDS011;16586;48.976;9.584;2023-03-03T12:19:58;987.50;;;940.40;;
487;SDS011;16586;48.976;9.584;2023-03-03T12:22:31;987.00;;;939.95;;
487;SDS011;16586;48.976;9.584;2023-03-03T12:27:59;977.07;;;930.50;;
487;SDS011;16586;48.976;9.584;2023-03-03T12:30:40;975.03;;;928.53;;
487;SDS011;16586;48.976;9.584;2023-03-03T12:33:32;974.20;;;927.78;;
487;SDS011;16586;48.976;9.584;2023-03-03T12:36:15;968.17;;;922.00;;
487;SDS011;16586;48.976;9.584;2023-03-03T12:39:06;954.80;;;909.28;;
487;SDS011;16586;48.976;9.584;2023-03-03T12:41:39;951.28;;;905.95;;
487;SDS011;16586;48.976;9.584;2023-03-03T12:44:14;952.72;;;907.30;;
487;SDS011;16586;48.976;9.584;2023-03-03T12:46:51;957.88;;;912.20;;
487;SDS011;16586;48.976;9.584;2023-03-03T12:49:26;969.20;;;923.00;;
487;SDS011;16586;48.976;9.584;2023-03-03T12:52:05;960.92;;;915.13;;
487;SDS011;16586;48.976;9.584;2023-03-03T12:54:43;957.13;;;911.47;;
487;SDS011;16586;48.976;9.584;2023-03-03T12:57:26;971.33;;;925.03;;
487;SDS011;16586;48.976;9.584;2023-03-03T13:00:04;954.83;;;909.33;;
487;SDS011;16586;48.976;9.584;2023-03-03T13:02:45;966.58;;;920.47;;
487;SDS011;16586;48.976;9.584;2023-03-03T13:05:21;969.05;;;922.85;;
487;SDS011;16586;48.976;9.584;2023-03-03T13:07:55;972.42;;;926.05;;
487;SDS011;16586;48.976;9.584;2023-03-03T13:10:34;938.00;;;893.28;;
487;SDS011;16586;48.976;9.584;2023-03-03T13:13:07;885.03;;;842.83;;
487;SDS011;16586;48.976;9.584;2023-03-03T13:15:47;891.00;;;848.53;;
487;SDS011;16586;48.976;9.584;2023-03-03T13:18:25;813.95;;;775.13;;
487;SDS011;16586;48.976;9.584;2023-03-03T13:20:58;789.78;;;752.10;;
487;SDS011;16586;48.976;9.584;2023-03-03T13:23:33;788.00;;;750.42;;
487;SDS011;16586;48.976;9.584;2023-03-03T13:26:06;783.58;;;746.20;;
487;SDS011;16586;48.976;9.584;2023-03-03T13:28:41;748.80;;;713.10;;
487;SDS011;16586;48.976;9.584;2023-03-03T13:31:21;764.57;;;728.07;;
487;SDS011;16586;48.976;9.584;2023-03-03T13:33:50;749.80;;;714.05;;
487;SDS011;16586;48.976;9.584;2023-03-03T13:36:19;758.22;;;722.08;;
487;SDS011;16586;48.976;9.584;2023-03-03T13:38:52;726.83;;;692.13;;
487;SDS011;16586;48.976;9.584;2023-03-03T13:41:22;685.72;;;653.03;;
487;SDS011;16586;48.976;9.584;2023-03-03T13:43:56;657.70;;;626.30;;
487;SDS011;16586;48.976;9.584;2023-03-03T13:46:32;642.50;;;611.85;;
487;SDS011;16586;48.976;9.584;2023-03-03T13:49:08;620.17;;;590.58;;
487;SDS011;16586;48.976;9.584;2023-03-03T13:51:48;589.63;;;561.53;;
487;SDS011;16586;48.976;9.584;2023-03-03T13:54:28;605.10;;;576.22;;
487;SDS011;16586;48.976;9.584;2023-03-03T13:57:13;575.38;;;547.92;;
487;SDS011;16586;48.976;9.584;2023-03-03T13:59:52;580.00;;;552.33;;
487;SDS011;16586;48.976;9.584;2023-03-03T14:05:33;725.92;;;691.30;;
487;SDS011;16586;48.976;9.584;2023-03-03T14:08:06;722.20;;;687.80;;
487;SDS011;16586;48.976;9.584;2023-03-03T14:10:41;711.70;;;677.78;;
487;SDS011;16586;48.976;9.584;2023-03-03T14:13:13;707.03;;;673.30;;
487;SDS011;16586;48.976;9.584;2023-03-03T14:15:52;700.22;;;666.83;;
487;SDS011;16586;48.976;9.584;2023-03-03T14:18:24;700.33;;;666.92;;
487;SDS011;16586;48.976;9.584;2023-03-03T14:20:55;750.15;;;714.35;;
487;SDS011;16586;48.976;9.584;2023-03-03T14:23:29;827.45;;;788.00;;
487;SDS011;16586;48.976;9.584;2023-03-03T14:26:04;905.70;;;862.50;;
487;SDS011;16586;48.976;9.584;2023-03-03T14:28:37;959.15;;;913.42;;
487;SDS011;16586;48.976;9.584;2023-03-03T14:31:13;1031.40;;;982.20;;
487;SDS011;16586;48.976;9.584;2023-03-03T14:33:42;1206.78;;;999.90;;
487;SDS011;16586;48.976;9.584;2023-03-03T14:36:23;1315.97;;;999.90;;
487;SDS011;16586;48.976;9.584;2023-03-03T14:38:52;1330.95;;;999.90;;
487;SDS011;16586;48.976;9.584;2023-03-03T14:41:21;1323.57;;;999.90;;
487;SDS011;16586;48.976;9.584;2023-03-03T14:43:59;1325.53;;;999.90;;
487;SDS011;16586;48.976;9.584;2023-03-03T14:46:32;1323.72;;;999.90;;
487;SDS011;16586;48.976;9.584;2023-03-03T14:49:03;1315.28;;;999.90;;
487;SDS011;16586;48.976;9.584;2023-03-03T14:51:33;1302.72;;;999.90;;
487;SDS011;16586;48.976;9.584;2023-03-03T14:54:07;1211.85;;;999.90;;
487;SDS011;16586;48.976;9.584;2023-03-03T14:56:39;1204.38;;;999.90;;
487;SDS011;16586;48.976;9.584;2023-03-03T14:59:25;1202.80;;;999.90;;
487;SDS011;16586;48.976;9.584;2023-03-03T15:01:57;1186.45;;;999.90;;
487;SDS011;16586;48.976;9.584;2023-03-03T15:04:36;1175.67;;;999.90;;
487;SDS011;16586;48.976;9.584;2023-03-03T15:07:14;1168.38;;;999.90;;
487;SDS011;16586;48.976;9.584;2023-03-03T15:09:48;1145.88;;;999.90;;
487;SDS011;16586;48.976;9.584;2023-03-03T15:12:21;1129.93;;;999.90;;
487;SDS011;16586;48.976;9.584;2023-03-03T15:14:52;1077.95;;;999.90;;
487;SDS011;16586;48.976;9.584;2023-03-03T15:17:32;1050.68;;;999.90;;
487;SDS011;16586;48.976;9.584;2023-03-03T15:22:57;957.05;;;911.45;;